Flight Track Log - Related Links

Times and Time Zones

All times are in EDT time to prevent confusion due to time zone crossing. See the N7800 flight status page for this flight to view local times or setup timezone preferences in your user account.

Time Position Orientation Groundspeed Altitude Reporting Facility
EDT Latitude Longitude Course Direction KTS MPH feet Rate Location/Type
Sun 11:32:44 PM 36.0583 -115.1661 164° South 84 97 3,800  Level Los Angeles Center
Sun 11:33:18 PM 36.0494 -115.1631 164° South 88 101 4,000 875 Climbing Los Angeles Center
Sun 11:34:20 PM 36.0119 -115.1583 174° South 99 114 5,200 1,171 Climbing Los Angeles Center
Sun 11:35:21 PM 35.9808 -115.1583 180° South 107 123 6,400 1,073 Climbing Los Angeles Center
Sun 11:36:23 PM 35.9536 -115.1647 191° South 104 120 7,400 1,113 Climbing Los Angeles Center
Sun 11:37:25 PM 35.9286 -115.1889 218° Southwest 110 127 8,700 1,171 Climbing Los Angeles Center
Sun 11:38:26 PM 35.9025 -115.1992 198° South 102 117 9,800 800 Climbing Los Angeles Center
Sun 11:39:40 PM 35.8783 -115.2217 217° Southwest 104 120 10,500 309 Climbing Los Angeles Center
Sun 11:40:42 PM 35.8378 -115.2625 219° Southwest 136 157 10,500 48 Level Los Angeles Center
Sun 11:41:44 PM 35.7967 -115.2989 216° Southwest 153 176 10,600 48 Climbing Los Angeles Center
Sun 11:42:46 PM 35.7586 -115.3381 220° Southwest 159 183 10,600  Level Los Angeles Center
Sun 11:43:47 PM 35.7342 -115.3814 235° Southwest 154 177 10,600  Level Los Angeles Center
Sun 11:44:49 PM 35.7072 -115.4256 233° Southwest 157 181 10,600  Level Los Angeles Center
Sun 11:45:51 PM 35.6803 -115.4683 232° Southwest 158 182 10,600  Level Los Angeles Center
Sun 11:46:52 PM 35.6522 -115.5092 230° Southwest 157 181 10,600  Level Los Angeles Center
Sun 11:47:54 PM 35.6250 -115.5547 234° Southwest 162 186 10,600  Level Los Angeles Center
Sun 11:48:56 PM 35.5975 -115.5961 231° Southwest 158 182 10,600  Level Los Angeles Center
Sun 11:49:57 PM 35.5717 -115.6367 232° Southwest 153 176 10,600  Level Los Angeles Center
Sun 11:50:59 PM 35.5422 -115.6833 232° Southwest 146 168 10,600  Level Los Angeles Center
Sun 11:52:01 PM 35.5147 -115.7253 231° Southwest 153 176 10,600  Level Los Angeles Center
Sun 11:53:02 PM 35.4886 -115.7658 232° Southwest 154 177 10,600 49 Level Los Angeles Center
Sun 11:54:04 PM 35.4614 -115.8100 233° Southwest 157 181 10,700 48 Climbing Los Angeles Center
Sun 11:55:06 PM 35.4336 -115.8500 230° Southwest 156 180 10,700  Level Los Angeles Center
Sun 11:56:07 PM 35.4081 -115.8872 230° Southwest 151 174 10,700  Level Los Angeles Center
Sun 11:57:09 PM 35.3839 -115.9269 233° Southwest 147 169 10,700  Level Los Angeles Center
Sun 11:58:11 PM 35.3589 -115.9669 233° Southwest 147 169 10,700  Level Los Angeles Center
Sun 11:59:12 PM 35.3333 -116.0078 233° Southwest 149 171 10,700  Level Los Angeles Center
Mon 12:00:14 AM 35.3083 -116.0467 232° Southwest 148 170 10,700  Level Los Angeles Center
Mon 12:01:16 AM 35.2744 -116.0983 231° Southwest 154 177 10,700  Level Los Angeles Center
Mon 12:02:17 AM 35.2458 -116.1431 232° Southwest 161 185 10,700  Level Los Angeles Center
Mon 12:03:19 AM 35.2183 -116.1850 231° Southwest 161 185 10,700  Level Los Angeles Center
Mon 12:04:20 AM 35.1908 -116.2275 232° Southwest 160 184 10,700  Level Los Angeles Center
Mon 12:05:22 AM 35.1639 -116.2681 231° Southwest 157 181 10,700 -98 Level Los Angeles Center
Mon 12:06:23 AM 35.1347 -116.3142 232° Southwest 157 181 10,500 -98 Descending Los Angeles Center
Mon 12:07:25 AM 35.1089 -116.3547 232° Southwest 160 184 10,500  Level Los Angeles Center
Mon 12:08:26 AM 35.0775 -116.4028 231° Southwest 163 188 10,500  Level Los Angeles Center
Mon 12:09:28 AM 35.0456 -116.4489 230° Southwest 162 186 10,500  Level Los Angeles Center
Mon 12:10:29 AM 35.0181 -116.4897 231° Southwest 160 184 10,500  Level Los Angeles Center
Mon 12:11:31 AM 34.9875 -116.5375 232° Southwest 161 185 10,500  Level Los Angeles Center
Mon 12:12:32 AM 34.9619 -116.5761 231° Southwest 161 185 10,500  Level Los Angeles Center
Mon 12:13:34 AM 34.9503 -116.6269 254° West 161 185 10,500  Level Los Angeles Center
Mon 12:14:35 AM 34.9411 -116.6811 258° West 162 186 10,500  Level Los Angeles Center
Mon 12:15:37 AM 34.9283 -116.7358 254° West 165 190 10,500  Level Los Angeles Center
Mon 12:16:38 AM 34.9125 -116.8003 253° West 166 191 10,500  Level Los Angeles Center
Mon 12:17:39 AM 34.9014 -116.8522 255° West 163 188 10,500  Level Los Angeles Center
Mon 12:18:41 AM 34.8908 -116.9019 256° West 158 182 10,500 -49 Level Los Angeles Center
Mon 12:19:42 AM 34.8800 -116.9525 255° West 156 180 10,400 -49 Descending Los Angeles Center
Mon 12:20:44 AM 34.8675 -117.0053 254° West 158 182 10,400  Level Los Angeles Center
Mon 12:21:45 AM 34.8569 -117.0567 256° West 158 182 10,400  Level Los Angeles Center
Mon 12:22:46 AM 34.8469 -117.1039 256° West 153 176 10,400  Level Los Angeles Center
Mon 12:23:48 AM 34.8358 -117.1519 254° West 149 171 10,400 49 Level Los Angeles Center
Mon 12:24:49 AM 34.8247 -117.2006 254° West 149 171 10,500 49 Climbing Los Angeles Center
Mon 12:25:51 AM 34.8144 -117.2492 256° West 149 171 10,500  Level Los Angeles Center
Mon 12:26:52 AM 34.8008 -117.3086 254° West 150 173 10,500  Level Los Angeles Center
Mon 12:27:53 AM 34.7900 -117.3581 255° West 150 173 10,500  Level Los Angeles Center
Mon 12:28:54 AM 34.7800 -117.4072 256° West 150 173 10,500  Level Los Angeles Center
Mon 12:29:56 AM 34.7683 -117.4564 254° West 150 173 10,500  Level Los Angeles Center
Mon 12:30:57 AM 34.7564 -117.5092 255° West 156 180 10,500  Level Los Angeles Center
Mon 12:31:58 AM 34.7450 -117.5606 255° West 158 182 10,500  Level Los Angeles Center
Mon 12:33:00 AM 34.7347 -117.6086 255° West 153 176 10,500  Level Los Angeles Center
Mon 12:34:01 AM 34.7256 -117.6472 254° West 149 171 10,500  Level Los Angeles Center
Mon 12:35:02 AM 34.7128 -117.7050 255° West 148 170 10,500  Level Los Angeles Center
Mon 12:36:04 AM 34.7014 -117.7547 254° West 150 173 10,500  Level Los Angeles Center
Mon 12:37:05 AM 34.6894 -117.8042 254° West 152 175 10,500  Level Los Angeles Center
Mon 12:38:18 AM 34.6781 -117.8625 257° West 149 171 10,500  Level Los Angeles Center
Mon 12:39:20 AM 34.6650 -117.9192 254° West 146 168 10,500  Level Los Angeles Center
Mon 12:40:22 AM 34.6536 -117.9672 254° West 147 169 10,500  Level Los Angeles Center
Mon 12:41:23 AM 34.6425 -118.0161 255° West 150 173 10,500  Level Los Angeles Center
Mon 12:42:24 AM 34.6317 -118.0642 255° West 150 173 10,500  Level Los Angeles Center
Mon 12:43:26 AM 34.5925 -118.0897 208° Southwest 160 184 10,500  Level Los Angeles Center
Mon 12:44:27 AM 34.5533 -118.1158 209° Southwest 160 184 10,500  Level Los Angeles Center
Mon 12:45:29 AM 34.5139 -118.1400 207° Southwest 161 185 10,500  Level Los Angeles Center
Mon 12:46:30 AM 34.4708 -118.1672 208° Southwest 160 184 10,500 -224 Level Los Angeles Center
Mon 12:47:43 AM 34.4289 -118.1928 207° Southwest 168 193 10,000 -612 Descending Los Angeles Center
Mon 12:48:57 AM 34.3653 -118.2347 209° Southwest 186 214 9,000 -971 Descending Los Angeles Center
Mon 12:49:59 AM 34.3103 -118.2686 207° Southwest 186 214 7,800 -1,210 Descending Los Angeles Center
Mon 12:51:01 AM 34.2597 -118.3000 207° Southwest 199 229 6,500 -1,220 Descending Los Angeles Center
Mon 12:52:02 AM 34.2092 -118.3311 207° Southwest 202 232 5,300 -984 Descending Los Angeles Center
Mon 12:53:03 AM 34.1547 -118.3303 179° South 199 229 4,500 -1,122 Descending Los Angeles Center
Mon 12:54:05 AM 34.1069 -118.2994 152° Southeast 197 227 3,000 -1,258 Descending Los Angeles Center
Mon 12:55:07 AM 34.0850 -118.3589 246° West 210 242 1,900 -1,065 Descending Los Angeles Center

Login

Don't have an account? Register now (free) for customized features, flight alerts, and more!